createdAt,value
2023-01-06T00:01:20.659Z,25.20
2023-01-06T00:03:51.192Z,25.20
2023-01-06T00:06:23.006Z,25.17
2023-01-06T00:08:50.969Z,25.15
2023-01-06T00:11:19.536Z,25.14
2023-01-06T00:13:47.656Z,25.14
2023-01-06T00:16:18.938Z,25.12
2023-01-06T00:18:47.877Z,25.09
2023-01-06T00:21:16.951Z,25.09
2023-01-06T00:23:46.344Z,25.10
2023-01-06T00:26:14.289Z,25.10
2023-01-06T00:28:42.162Z,25.10
2023-01-06T00:31:11.819Z,25.13
2023-01-06T00:33:41.889Z,25.15
2023-01-06T00:36:11.660Z,25.17
2023-01-06T00:38:40.475Z,25.11
2023-01-06T00:41:25.534Z,25.18
2023-01-06T00:43:53.893Z,25.13
2023-01-06T00:46:22.782Z,25.17
2023-01-06T00:49:04.330Z,25.17
2023-01-06T00:51:36.109Z,25.16
2023-01-06T00:54:04.781Z,25.15
2023-01-06T00:56:36.677Z,25.08
2023-01-06T00:59:05.336Z,24.99
2023-01-06T01:01:33.655Z,24.89
2023-01-06T01:04:01.650Z,24.79
2023-01-06T01:06:29.904Z,24.72
2023-01-06T01:08:59.602Z,24.69
2023-01-06T01:11:45.588Z,24.60
2023-01-06T01:14:18.491Z,24.50
2023-01-06T01:16:46.681Z,24.40
2023-01-06T01:19:15.273Z,24.40
2023-01-06T01:21:43.470Z,24.33
2023-01-06T01:24:11.779Z,24.26
2023-01-06T01:26:40.011Z,24.20
2023-01-06T01:29:08.122Z,24.16
2023-01-06T01:31:37.442Z,24.15
2023-01-06T01:34:05.529Z,24.13
2023-01-06T01:36:33.585Z,24.12
2023-01-06T01:39:01.974Z,24.11
2023-01-06T01:41:31.167Z,24.10
2023-01-06T01:44:02.296Z,24.10
2023-01-06T01:46:33.618Z,24.06
2023-01-06T01:49:06.504Z,24.05
2023-01-06T01:51:39.498Z,24.04
2023-01-06T01:54:12.009Z,24.00
2023-01-06T01:56:45.939Z,23.99
2023-01-06T01:59:18.253Z,23.96
2023-01-06T02:01:48.199Z,23.90
2023-01-06T02:04:19.130Z,23.90
2023-01-06T02:06:50.563Z,23.87
2023-01-06T02:09:24.676Z,23.86
2023-01-06T02:11:53.250Z,23.83
2023-01-06T02:14:23.578Z,23.80
2023-01-06T02:17:10.993Z,23.70
2023-01-06T02:20:06.858Z,23.75
2023-01-06T02:22:55.213Z,23.72
2023-01-06T02:25:52.714Z,23.70
2023-01-06T02:28:45.444Z,23.66
2023-01-06T02:31:42.258Z,23.61
2023-01-06T02:34:18.069Z,23.59
2023-01-06T02:36:54.348Z,23.58
2023-01-06T02:39:38.618Z,23.55
2023-01-06T02:42:17.416Z,23.54
2023-01-06T02:44:57.253Z,23.53
2023-01-06T02:47:34.192Z,23.53
2023-01-06T02:50:13.260Z,23.51
2023-01-06T02:52:46.023Z,23.46
2023-01-06T02:55:22.853Z,23.45
2023-01-06T02:57:56.748Z,23.47
2023-01-06T03:00:34.460Z,23.47
2023-01-06T03:03:09.220Z,23.45
2023-01-06T03:05:39.273Z,23.42
2023-01-06T03:08:14.090Z,23.42
2023-01-06T03:10:45.466Z,23.42
2023-01-06T03:13:18.686Z,23.40
2023-01-06T03:15:46.819Z,23.34
2023-01-06T03:18:16.270Z,23.35
2023-01-06T03:20:44.623Z,23.33
2023-01-06T03:23:14.504Z,23.35
2023-01-06T03:25:42.454Z,23.33
2023-01-06T03:28:12.046Z,23.32
2023-01-06T03:30:46.867Z,23.33
2023-01-06T03:33:23.942Z,23.32
2023-01-06T03:36:07.129Z,23.32
2023-01-06T03:38:44.390Z,23.29
2023-01-06T03:41:47.799Z,23.29
2023-01-06T03:44:24.758Z,23.28
2023-01-06T03:46:55.588Z,23.25
2023-01-06T03:49:30.060Z,23.25
2023-01-06T03:52:05.072Z,23.25
2023-01-06T03:54:41.394Z,23.23
2023-01-06T03:57:14.072Z,23.22
2023-01-06T03:59:48.481Z,23.24
2023-01-06T04:02:20.374Z,23.22
2023-01-06T04:05:04.234Z,23.22
2023-01-06T04:07:32.401Z,23.17
2023-01-06T04:10:00.467Z,23.16
2023-01-06T04:12:40.625Z,23.15
2023-01-06T04:15:15.433Z,23.13
2023-01-06T04:17:46.498Z,23.14
2023-01-06T04:20:21.001Z,23.14
2023-01-06T04:22:51.287Z,23.10
2023-01-06T04:25:19.819Z,23.12
2023-01-06T04:27:47.966Z,23.11
2023-01-06T04:30:16.407Z,23.09
2023-01-06T04:32:45.323Z,23.07
2023-01-06T04:35:13.303Z,23.07
2023-01-06T04:37:42.701Z,23.07
2023-01-06T04:40:11.816Z,23.05
2023-01-06T04:42:57.203Z,23.03
2023-01-06T04:45:25.339Z,23.01
2023-01-06T04:47:53.326Z,23.01
2023-01-06T04:50:21.297Z,23.01
2023-01-06T04:52:50.628Z,23.01
2023-01-06T04:55:18.561Z,23.00
2023-01-06T04:57:46.498Z,22.99
2023-01-06T05:00:15.433Z,23.00
2023-01-06T05:02:43.411Z,22.98
2023-01-06T05:05:11.580Z,22.98
2023-01-06T05:07:39.764Z,22.97
2023-01-06T05:10:11.241Z,22.97
2023-01-06T05:12:39.270Z,22.94
2023-01-06T05:15:08.481Z,22.93
2023-01-06T05:17:36.540Z,22.92
2023-01-06T05:20:05.226Z,22.92
2023-01-06T05:22:33.194Z,22.92
2023-01-06T05:25:01.177Z,22.92
2023-01-06T05:27:30.561Z,22.92
2023-01-06T05:29:58.558Z,22.92
2023-01-06T05:32:26.520Z,22.92
2023-01-06T05:34:54.462Z,22.91
2023-01-06T05:37:22.479Z,22.91
2023-01-06T05:39:50.386Z,22.89
2023-01-06T05:42:18.603Z,22.90
2023-01-06T05:44:48.068Z,22.89
2023-01-06T05:47:15.997Z,22.87
2023-01-06T05:49:44.066Z,22.86
2023-01-06T05:52:12.001Z,22.85
2023-01-06T05:54:40.583Z,22.81
2023-01-06T05:57:09.893Z,22.87
2023-01-06T05:59:37.960Z,22.83
2023-01-06T06:02:07.361Z,22.85
2023-01-06T06:04:35.402Z,22.88
2023-01-06T06:07:03.361Z,22.88
2023-01-06T06:09:31.360Z,22.84
2023-01-06T06:11:59.265Z,22.86
2023-01-06T06:14:27.496Z,22.86
2023-01-06T06:16:56.215Z,22.88
2023-01-06T06:19:25.625Z,22.88
2023-01-06T06:21:54.390Z,22.81
2023-01-06T06:24:22.333Z,22.87
2023-01-06T06:26:50.348Z,22.90
2023-01-06T06:29:18.241Z,22.88
2023-01-06T06:31:46.247Z,22.88
2023-01-06T06:34:14.965Z,22.91
2023-01-06T06:36:44.287Z,22.92
2023-01-06T06:39:12.271Z,22.94
2023-01-06T06:41:40.167Z,22.91
2023-01-06T06:44:08.217Z,22.90
2023-01-06T06:46:36.317Z,22.92
2023-01-06T06:49:04.405Z,22.92
2023-01-06T06:51:32.477Z,22.88
2023-01-06T06:54:01.796Z,22.88
2023-01-06T06:56:29.727Z,22.86
2023-01-06T06:58:57.671Z,22.85
2023-01-06T07:01:25.719Z,22.85
2023-01-06T07:03:53.757Z,22.83
2023-01-06T07:06:25.607Z,22.85
2023-01-06T07:08:55.225Z,22.83
2023-01-06T07:11:25.248Z,22.85
2023-01-06T07:13:53.218Z,22.88
2023-01-06T07:16:23.231Z,22.88
2023-01-06T07:18:51.265Z,22.89
2023-01-06T07:21:19.365Z,22.88
2023-01-06T07:23:47.351Z,22.90
2023-01-06T07:26:15.824Z,22.90
2023-01-06T07:28:45.185Z,22.89
2023-01-06T07:31:13.224Z,22.88
2023-01-06T07:33:41.230Z,22.90
2023-01-06T07:36:10.156Z,22.93
2023-01-06T07:38:38.106Z,22.91
2023-01-06T07:41:06.338Z,22.91
2023-01-06T07:43:34.337Z,22.87
2023-01-06T07:46:03.784Z,22.91
2023-01-06T07:48:31.790Z,22.89
2023-01-06T07:50:59.911Z,22.90
2023-01-06T07:53:28.137Z,22.91
2023-01-06T07:55:56.906Z,22.89
2023-01-06T07:58:25.042Z,22.89
2023-01-06T08:00:53.089Z,22.84
2023-01-06T08:03:22.574Z,22.79
2023-01-06T08:05:50.946Z,22.77
2023-01-06T08:08:18.840Z,22.74
2023-01-06T08:10:46.927Z,22.70
2023-01-06T08:13:14.950Z,22.67
2023-01-06T08:15:43.021Z,22.61
2023-01-06T08:18:11.202Z,22.56
2023-01-06T08:20:40.586Z,22.50
2023-01-06T08:23:08.558Z,22.43
2023-01-06T08:25:36.690Z,22.39
2023-01-06T08:28:04.930Z,22.37
2023-01-06T08:30:39.748Z,22.36
2023-01-06T08:33:07.745Z,22.38
2023-01-06T08:35:35.723Z,22.40
2023-01-06T08:38:05.095Z,22.42
2023-01-06T08:40:33.118Z,22.44
2023-01-06T08:43:01.049Z,22.41
2023-01-06T08:45:29.020Z,22.38
2023-01-06T08:47:57.100Z,22.37
2023-01-06T08:50:26.644Z,22.38
2023-01-06T08:52:55.467Z,22.39
2023-01-06T08:55:24.832Z,22.42
2023-01-06T08:57:54.937Z,22.42
2023-01-06T09:00:23.566Z,22.40
2023-01-06T09:02:51.852Z,22.39
2023-01-06T09:05:20.007Z,22.23
2023-01-06T09:07:48.166Z,22.47
2023-01-06T09:10:16.142Z,22.55
2023-01-06T09:12:45.516Z,22.64
2023-01-06T09:15:13.892Z,22.70
2023-01-06T09:17:41.973Z,22.73
2023-01-06T09:20:10.961Z,22.82
2023-01-06T09:22:38.989Z,22.86
2023-01-06T09:25:08.041Z,22.88
2023-01-06T09:27:36.110Z,22.91
2023-01-06T09:30:07.067Z,23.03
2023-01-06T09:32:35.028Z,23.14
2023-01-06T09:35:02.935Z,23.23
2023-01-06T09:37:30.918Z,23.29
2023-01-06T09:39:59.259Z,23.36
2023-01-06T09:42:42.493Z,23.45
2023-01-06T09:45:17.629Z,23.49
2023-01-06T09:47:50.107Z,23.58
2023-01-06T09:50:27.531Z,23.67
2023-01-06T09:53:00.593Z,23.58
2023-01-06T09:55:35.621Z,23.81
2023-01-06T09:58:10.421Z,23.87
2023-01-06T10:00:42.719Z,23.93
2023-01-06T10:03:14.666Z,23.97
2023-01-06T10:05:59.305Z,24.02
2023-01-06T10:08:34.521Z,24.03
2023-01-06T10:11:13.498Z,24.04
2023-01-06T10:14:06.535Z,24.09
2023-01-06T10:16:49.888Z,24.09
2023-01-06T10:19:29.567Z,24.07
2023-01-06T10:22:05.203Z,24.08
2023-01-06T10:24:45.262Z,24.12
2023-01-06T10:27:24.090Z,24.16
2023-01-06T10:29:55.688Z,24.17
2023-01-06T10:32:31.072Z,24.22
2023-01-06T10:35:00.506Z,24.23
2023-01-06T10:37:35.950Z,24.29
2023-01-06T10:40:16.279Z,24.33
2023-01-06T10:42:57.667Z,24.39
2023-01-06T10:45:29.324Z,24.42
2023-01-06T10:48:00.493Z,24.41
2023-01-06T10:50:29.765Z,24.37
2023-01-06T10:52:57.789Z,24.37
2023-01-06T10:55:35.041Z,24.33
2023-01-06T10:58:13.002Z,24.29
2023-01-06T11:00:55.865Z,24.29
2023-01-06T11:03:33.429Z,24.28
2023-01-06T11:06:06.595Z,24.29
2023-01-06T11:08:35.456Z,24.10
2023-01-06T11:11:03.825Z,24.23
2023-01-06T11:13:34.924Z,24.25
2023-01-06T11:16:06.564Z,24.25
2023-01-06T11:18:38.259Z,24.26
2023-01-06T11:21:12.434Z,24.28
2023-01-06T11:23:42.170Z,24.27
2023-01-06T11:26:19.088Z,24.15
2023-01-06T11:28:48.999Z,24.27
2023-01-06T11:31:20.785Z,24.32
2023-01-06T11:33:53.329Z,24.37
2023-01-06T11:36:23.709Z,24.36
2023-01-06T11:38:56.193Z,24.35
2023-01-06T11:41:29.321Z,24.33
2023-01-06T11:44:08.577Z,24.34
2023-01-06T11:46:38.852Z,24.38
2023-01-06T11:49:17.032Z,24.40
2023-01-06T11:51:50.482Z,24.37
2023-01-06T11:54:32.796Z,24.32
2023-01-06T11:57:26.353Z,24.27
2023-01-06T12:00:32.897Z,24.24
2023-01-06T12:03:08.765Z,24.22
2023-01-06T12:05:46.771Z,24.14
2023-01-06T12:08:19.991Z,24.12
2023-01-06T12:10:52.581Z,24.18
2023-01-06T12:13:20.920Z,24.16
2023-01-06T12:16:01.183Z,24.15
2023-01-06T12:18:32.881Z,24.12
2023-01-06T12:21:04.922Z,24.12
2023-01-06T12:23:35.594Z,24.10
2023-01-06T12:26:06.539Z,24.11
2023-01-06T12:28:37.959Z,24.09
2023-01-06T12:31:11.455Z,24.08
2023-01-06T12:33:45.127Z,24.08
2023-01-06T12:36:20.816Z,24.08
2023-01-06T12:38:55.564Z,24.07
2023-01-06T12:41:28.986Z,24.06
2023-01-06T12:44:07.215Z,24.03
2023-01-06T12:46:41.052Z,24.00
2023-01-06T12:49:20.848Z,24.01
2023-01-06T12:51:55.456Z,23.98
2023-01-06T12:54:29.067Z,23.98
2023-01-06T12:57:18.495Z,23.96
2023-01-06T13:00:00.348Z,23.93
2023-01-06T13:02:51.736Z,23.91
2023-01-06T13:05:32.038Z,23.90
2023-01-06T13:08:17.581Z,23.89
2023-01-06T13:10:49.877Z,23.88
2023-01-06T13:13:48.401Z,23.90
2023-01-06T13:16:22.684Z,23.86
2023-01-06T13:19:03.193Z,23.87
2023-01-06T13:21:34.217Z,23.84
2023-01-06T13:24:33.253Z,23.83
2023-01-06T13:27:17.070Z,23.80
2023-01-06T13:29:57.865Z,23.81
2023-01-06T13:32:49.074Z,23.79
2023-01-06T13:35:33.310Z,23.71
2023-01-06T13:38:14.612Z,23.75
2023-01-06T13:40:45.366Z,23.73
2023-01-06T13:43:19.749Z,23.70
2023-01-06T13:45:52.054Z,23.69
2023-01-06T13:48:25.853Z,23.66
2023-01-06T13:50:53.925Z,23.63
2023-01-06T13:53:24.457Z,23.65
2023-01-06T13:56:25.630Z,23.66
2023-01-06T13:59:19.559Z,23.63
2023-01-06T14:01:48.137Z,23.58
2023-01-06T14:04:47.751Z,23.58
2023-01-06T14:07:16.531Z,23.57
2023-01-06T14:09:50.358Z,23.60
2023-01-06T14:12:22.994Z,23.59
2023-01-06T14:15:01.616Z,23.61
2023-01-06T14:17:32.764Z,23.46
2023-01-06T14:20:00.756Z,23.58
2023-01-06T14:22:31.580Z,23.58
2023-01-06T14:25:02.551Z,23.55
2023-01-06T14:28:07.738Z,23.55
2023-01-06T14:30:38.160Z,23.54
2023-01-06T14:33:25.825Z,23.53
2023-01-06T14:36:00.953Z,23.50
2023-01-06T14:38:33.381Z,23.25
2023-01-06T14:41:05.377Z,23.49
2023-01-06T14:43:42.308Z,23.50
2023-01-06T14:46:18.643Z,23.48
2023-01-06T14:48:51.845Z,23.46
2023-01-06T14:51:22.161Z,23.44
2023-01-06T14:54:05.246Z,23.46
2023-01-06T14:56:34.160Z,23.43
2023-01-06T14:59:21.236Z,23.42
2023-01-06T15:01:59.470Z,23.39
2023-01-06T15:04:31.298Z,23.40
2023-01-06T15:07:15.508Z,23.38
2023-01-06T15:09:43.696Z,23.35
2023-01-06T15:12:28.350Z,23.29
2023-01-06T15:14:56.590Z,23.32
2023-01-06T15:17:25.893Z,23.32
2023-01-06T15:19:54.787Z,23.30
2023-01-06T15:22:25.995Z,23.31
2023-01-06T15:24:54.159Z,23.29
2023-01-06T15:27:22.057Z,23.28
2023-01-06T15:29:55.403Z,23.26
2023-01-06T15:32:26.690Z,23.24
2023-01-06T15:34:58.126Z,23.27
2023-01-06T15:37:27.791Z,23.26
2023-01-06T15:39:56.113Z,23.27
2023-01-06T15:42:25.736Z,23.28
2023-01-06T15:44:57.984Z,23.31
2023-01-06T15:47:33.396Z,23.35
2023-01-06T15:50:04.499Z,23.30
2023-01-06T15:52:35.468Z,23.32
2023-01-06T15:55:05.809Z,23.32
2023-01-06T15:57:37.960Z,23.32
2023-01-06T16:00:08.784Z,23.30
2023-01-06T16:02:38.953Z,23.30
2023-01-06T16:05:07.394Z,23.32
2023-01-06T16:07:40.340Z,23.32
2023-01-06T16:10:30.976Z,23.34
2023-01-06T16:13:20.786Z,23.31
2023-01-06T16:15:50.566Z,23.28
2023-01-06T16:18:27.569Z,23.29
2023-01-06T16:20:56.200Z,23.27
2023-01-06T16:23:33.189Z,23.28
2023-01-06T16:26:11.398Z,23.29
2023-01-06T16:28:45.227Z,23.30
2023-01-06T16:31:15.405Z,23.29
2023-01-06T16:33:46.876Z,23.28
2023-01-06T16:36:17.303Z,23.25
2023-01-06T16:38:45.462Z,23.27
2023-01-06T16:41:17.738Z,23.26
2023-01-06T16:43:46.719Z,23.24
2023-01-06T16:46:22.550Z,23.25
2023-01-06T16:48:53.783Z,23.23
2023-01-06T16:51:22.716Z,23.22
2023-01-06T16:53:50.742Z,23.24
2023-01-06T16:56:22.678Z,23.23
2023-01-06T16:58:51.318Z,23.21
2023-01-06T17:01:20.979Z,23.05
2023-01-06T17:03:56.108Z,23.20
2023-01-06T17:06:27.054Z,23.09
2023-01-06T17:08:57.715Z,23.20
2023-01-06T17:11:28.138Z,23.22
2023-01-06T17:13:59.327Z,23.21
2023-01-06T17:16:32.322Z,23.18
2023-01-06T17:19:04.800Z,23.15
2023-01-06T17:21:35.958Z,23.14
2023-01-06T17:24:12.574Z,23.14
2023-01-06T17:26:42.025Z,23.11
2023-01-06T17:29:15.732Z,23.13
2023-01-06T17:31:46.677Z,23.10
2023-01-06T17:34:19.280Z,23.09
2023-01-06T17:36:48.742Z,23.11
2023-01-06T17:39:23.805Z,23.14
2023-01-06T17:41:59.438Z,23.14
2023-01-06T17:44:36.974Z,23.15
2023-01-06T17:47:13.331Z,23.14
2023-01-06T17:49:44.892Z,23.12
2023-01-06T17:52:18.184Z,23.12
2023-01-06T17:55:11.472Z,23.11
2023-01-06T17:57:42.219Z,23.08
2023-01-06T18:00:19.417Z,23.10
2023-01-06T18:02:49.781Z,23.08
2023-01-06T18:05:53.985Z,23.09
2023-01-06T18:08:25.125Z,23.06
2023-01-06T18:10:57.120Z,23.05
2023-01-06T18:13:29.891Z,23.04
2023-01-06T18:15:59.679Z,23.04
2023-01-06T18:18:34.114Z,23.04
2023-01-06T18:21:05.391Z,23.05
2023-01-06T18:23:35.967Z,23.07
2023-01-06T18:26:29.717Z,23.10
2023-01-06T18:29:00.509Z,23.07
2023-01-06T18:31:33.501Z,23.08
2023-01-06T18:34:02.876Z,23.09
2023-01-06T18:36:30.832Z,23.06
2023-01-06T18:39:00.491Z,23.06
2023-01-06T18:41:28.457Z,23.07
2023-01-06T18:43:56.395Z,23.08
2023-01-06T18:46:24.836Z,23.09
2023-01-06T18:48:52.911Z,23.06
2023-01-06T18:51:23.528Z,23.05
2023-01-06T18:53:53.657Z,23.04
2023-01-06T18:56:25.759Z,23.04
2023-01-06T18:58:57.242Z,23.08
2023-01-06T19:01:30.418Z,23.08
2023-01-06T19:04:03.345Z,23.07
2023-01-06T19:06:38.915Z,23.08
2023-01-06T19:09:30.616Z,23.08
2023-01-06T19:12:17.082Z,23.10
2023-01-06T19:14:48.263Z,23.09
2023-01-06T19:17:24.186Z,23.07
2023-01-06T19:19:53.439Z,22.96
2023-01-06T19:22:25.088Z,23.10
2023-01-06T19:24:58.205Z,23.01
2023-01-06T19:27:45.503Z,23.11
2023-01-06T19:30:34.690Z,23.09
2023-01-06T19:33:20.913Z,23.06
2023-01-06T19:35:49.497Z,23.03
2023-01-06T19:38:26.432Z,23.03
2023-01-06T19:40:56.414Z,23.01
2023-01-06T19:43:28.907Z,22.97
2023-01-06T19:45:57.223Z,22.95
2023-01-06T19:48:28.170Z,22.95
2023-01-06T19:51:19.005Z,22.98
2023-01-06T19:53:49.795Z,22.95
2023-01-06T19:56:19.994Z,22.68
2023-01-06T19:58:53.544Z,23.02
2023-01-06T20:01:23.118Z,22.85
2023-01-06T20:03:54.568Z,23.00
2023-01-06T20:06:23.583Z,23.00
2023-01-06T20:08:53.417Z,22.99
2023-01-06T20:11:22.918Z,22.98
2023-01-06T20:13:52.361Z,22.98
2023-01-06T20:16:20.440Z,22.96
2023-01-06T20:18:48.448Z,22.96
2023-01-06T20:21:16.357Z,22.95
2023-01-06T20:23:44.270Z,22.99
2023-01-06T20:26:12.287Z,23.02
2023-01-06T20:28:40.318Z,22.72
2023-01-06T20:31:09.813Z,23.00
2023-01-06T20:33:37.746Z,23.01
2023-01-06T20:36:07.873Z,23.01
2023-01-06T20:38:36.099Z,23.02
2023-01-06T20:41:05.335Z,23.03
2023-01-06T20:43:33.426Z,23.02
2023-01-06T20:46:01.353Z,22.98
2023-01-06T20:48:30.683Z,22.99
2023-01-06T20:50:58.880Z,23.00
2023-01-06T20:53:26.892Z,22.98
2023-01-06T20:55:54.938Z,22.96
2023-01-06T20:58:22.969Z,22.98
2023-01-06T21:00:51.029Z,22.97
2023-01-06T21:03:19.071Z,22.94
2023-01-06T21:05:48.316Z,22.89
2023-01-06T21:08:16.382Z,22.91
2023-01-06T21:10:44.381Z,22.94
2023-01-06T21:13:12.364Z,22.93
2023-01-06T21:15:40.390Z,22.96
2023-01-06T21:18:08.472Z,22.95
2023-01-06T21:20:36.461Z,22.96
2023-01-06T21:23:05.994Z,22.94
2023-01-06T21:25:34.111Z,22.95
2023-01-06T21:28:02.076Z,22.93
2023-01-06T21:30:32.077Z,22.93
2023-01-06T21:33:00.378Z,22.95
2023-01-06T21:35:28.273Z,22.87
2023-01-06T21:37:56.387Z,22.98
2023-01-06T21:40:25.762Z,22.97
2023-01-06T21:43:10.584Z,22.97
2023-01-06T21:45:40.134Z,22.96
2023-01-06T21:48:09.423Z,22.95
2023-01-06T21:50:39.973Z,22.99
2023-01-06T21:53:09.033Z,23.00
2023-01-06T21:55:39.252Z,23.00
2023-01-06T21:58:07.315Z,22.99
2023-01-06T22:00:35.303Z,23.01
2023-01-06T22:03:03.383Z,23.02
2023-01-06T22:05:31.444Z,23.03
2023-01-06T22:07:59.490Z,23.00
2023-01-06T22:10:28.759Z,22.98
2023-01-06T22:12:59.823Z,23.00
2023-01-06T22:15:29.556Z,23.00
2023-01-06T22:17:59.372Z,23.00
2023-01-06T22:20:28.507Z,23.00
2023-01-06T22:22:56.600Z,23.01
2023-01-06T22:25:24.570Z,23.00
2023-01-06T22:27:52.477Z,23.00
2023-01-06T22:30:21.858Z,22.99
2023-01-06T22:32:50.277Z,23.02
2023-01-06T22:35:18.871Z,23.05
2023-01-06T22:37:47.096Z,23.06
2023-01-06T22:40:15.710Z,22.87
2023-01-06T22:42:43.771Z,23.05
2023-01-06T22:45:12.830Z,23.04
2023-01-06T22:47:42.313Z,23.05
2023-01-06T22:50:11.458Z,23.06
2023-01-06T22:52:39.616Z,23.07
2023-01-06T22:55:09.117Z,23.08
2023-01-06T22:57:37.043Z,23.06
2023-01-06T23:00:12.021Z,23.07
2023-01-06T23:02:40.407Z,23.02
2023-01-06T23:05:11.184Z,23.03
2023-01-06T23:07:40.082Z,23.02
2023-01-06T23:10:08.970Z,23.01
2023-01-06T23:12:38.076Z,23.02
2023-01-06T23:15:07.446Z,23.01
2023-01-06T23:17:37.634Z,23.05
2023-01-06T23:20:06.803Z,23.07
2023-01-06T23:22:37.277Z,23.06
2023-01-06T23:25:05.887Z,23.04
2023-01-06T23:27:33.888Z,23.06
2023-01-06T23:30:01.942Z,23.07
2023-01-06T23:32:29.874Z,23.08
2023-01-06T23:34:57.912Z,23.10
2023-01-06T23:37:25.888Z,23.11
2023-01-06T23:39:55.278Z,23.12
2023-01-06T23:42:23.248Z,23.14
2023-01-06T23:44:51.262Z,23.11
2023-01-06T23:47:19.231Z,23.11
2023-01-06T23:49:48.762Z,23.10
2023-01-06T23:52:16.798Z,23.08
2023-01-06T23:54:44.814Z,23.04
2023-01-06T23:57:16.140Z,23.04
2023-01-06T23:59:44.699Z,22.95
